Time;durP1;ratioP1;P1;durP2;ratioP2;P2;SDS_P1;SDS_P2;PMS_P1;PMS_P2;Temp;Humidity;BMP_temperature;BMP_pressure;BME280_temperature;BME280_humidity;BME280_pressure;Samples;Min_cycle;Max_cycle;Signal;HPM_P1;HPM_P2
2022/03/08 00:00:29;;;;;;;10.60;5.70;;;;;;;;;;4976241;28;20207;-91
2022/03/08 00:02:55;;;;;;;8.45;5.40;;;;;;;;;;4976136;28;20038;-92
2022/03/08 00:05:22;;;;;;;10.57;6.00;;;;;;;;;;4959930;28;20545;-91
2022/03/08 00:07:48;;;;;;;8.23;5.25;;;;;;;;;;4975980;28;20042;-92
2022/03/08 00:10:16;;;;;;;11.00;5.68;;;;;;;;;;4975953;28;20486;-91
2022/03/08 00:12:42;;;;;;;10.70;5.93;;;;;;;;;;4975898;28;20042;-92
2022/03/08 00:15:09;;;;;;;9.75;5.65;;;;;;;;;;4976190;28;20494;-91
2022/03/08 00:17:35;;;;;;;10.38;5.95;;;;;;;;;;4975722;28;20150;-91
2022/03/08 00:20:03;;;;;;;10.10;5.78;;;;;;;;;;4959923;28;20089;-92
2022/03/08 00:22:29;;;;;;;10.88;5.57;;;;;;;;;;4959526;28;20035;-91
2022/03/08 00:24:55;;;;;;;8.88;5.57;;;;;;;;;;4975762;28;20046;-91
2022/03/08 00:27:21;;;;;;;10.75;5.82;;;;;;;;;;4975859;28;20098;-91
2022/03/08 00:29:47;;;;;;;11.00;5.63;;;;;;;;;;4959603;28;20482;-92
2022/03/08 00:32:13;;;;;;;11.05;5.82;;;;;;;;;;4975757;28;20074;-91
2022/03/08 00:34:39;;;;;;;10.80;5.90;;;;;;;;;;4975524;28;20039;-90
2022/03/08 00:37:05;;;;;;;8.73;5.65;;;;;;;;;;4959593;28;20047;-93
2022/03/08 00:39:31;;;;;;;9.40;5.53;;;;;;;;;;4959568;28;20050;-91
2022/03/08 00:41:57;;;;;;;10.82;5.85;;;;;;;;;;4975425;28;20058;-91
2022/03/08 00:44:23;;;;;;;9.27;5.28;;;;;;;;;;4975431;28;20047;-91
2022/03/08 00:46:49;;;;;;;10.18;5.90;;;;;;;;;;4975521;28;20541;-92
2022/03/08 00:49:15;;;;;;;10.70;5.93;;;;;;;;;;4975184;28;20046;-91
2022/03/08 00:51:41;;;;;;;9.93;5.80;;;;;;;;;;4975279;28;20478;-91
2022/03/08 00:54:07;;;;;;;11.80;5.82;;;;;;;;;;4974917;28;20047;-92
2022/03/08 00:56:33;;;;;;;10.40;5.82;;;;;;;;;;4975263;28;20133;-91
2022/03/08 00:58:59;;;;;;;11.57;6.28;;;;;;;;;;4974893;28;20053;-92
2022/03/08 01:01:25;;;;;;;10.48;6.22;;;;;;;;;;4975226;28;20047;-91
2022/03/08 01:03:51;;;;;;;9.98;5.55;;;;;;;;;;4975384;28;20041;-92
2022/03/08 01:06:17;;;;;;;10.85;5.97;;;;;;;;;;4975416;28;20502;-93
2022/03/08 01:08:43;;;;;;;10.27;6.00;;;;;;;;;;4974957;28;20126;-91
2022/03/08 01:11:09;;;;;;;10.15;5.93;;;;;;;;;;4959561;28;20101;-91
2022/03/08 01:13:35;;;;;;;8.70;5.43;;;;;;;;;;4977244;28;20066;-92
2022/03/08 01:16:01;;;;;;;11.35;6.78;;;;;;;;;;4974894;28;20399;-92
2022/03/08 01:18:27;;;;;;;9.27;5.63;;;;;;;;;;4974725;28;20101;-92
2022/03/08 01:20:53;;;;;;;9.13;5.75;;;;;;;;;;4974767;28;20047;-90
2022/03/08 01:23:18;;;;;;;11.02;6.53;;;;;;;;;;4974547;28;20034;-91
2022/03/08 01:25:44;;;;;;;10.02;5.97;;;;;;;;;;4974421;28;20042;-93
2022/03/08 01:28:10;;;;;;;13.00;5.78;;;;;;;;;;4974543;28;20050;-91
2022/03/08 01:30:36;;;;;;;10.20;5.78;;;;;;;;;;4974585;28;20065;-91
2022/03/08 01:33:02;;;;;;;9.55;6.10;;;;;;;;;;4958348;28;20126;-91
2022/03/08 01:35:28;;;;;;;10.32;5.90;;;;;;;;;;4974582;28;20042;-91
2022/03/08 01:37:54;;;;;;;9.48;5.75;;;;;;;;;;4974330;28;20078;-92
2022/03/08 01:40:21;;;;;;;10.95;6.47;;;;;;;;;;4974353;28;20125;-92
2022/03/08 01:42:48;;;;;;;10.50;6.15;;;;;;;;;;4974179;28;20105;-92
2022/03/08 01:45:16;;;;;;;10.35;6.68;;;;;;;;;;4958151;28;20039;-91
2022/03/08 01:47:42;;;;;;;10.93;6.15;;;;;;;;;;4958053;28;20070;-91
2022/03/08 01:50:09;;;;;;;10.88;6.43;;;;;;;;;;4974325;28;20038;-92
2022/03/08 01:52:35;;;;;;;10.60;6.78;;;;;;;;;;4974288;28;20051;-91
2022/03/08 01:55:01;;;;;;;11.20;6.43;;;;;;;;;;4957989;28;20105;-92
2022/03/08 01:57:27;;;;;;;13.38;7.18;;;;;;;;;;4957992;28;20081;-91
2022/03/08 01:59:53;;;;;;;12.10;6.88;;;;;;;;;;4973725;28;20053;-92
2022/03/08 02:02:20;;;;;;;12.25;6.65;;;;;;;;;;4974091;28;20046;-91
2022/03/08 02:04:46;;;;;;;12.75;6.45;;;;;;;;;;4973936;28;20049;-91
2022/03/08 02:07:12;;;;;;;10.73;6.53;;;;;;;;;;4973860;28;20490;-91
2022/03/08 02:09:39;;;;;;;12.25;6.43;;;;;;;;;;4957731;28;20050;-91
2022/03/08 02:12:05;;;;;;;10.90;6.20;;;;;;;;;;4958082;28;20092;-91
2022/03/08 02:14:31;;;;;;;11.50;6.78;;;;;;;;;;4973794;28;20136;-91
2022/03/08 02:16:57;;;;;;;11.15;6.88;;;;;;;;;;4973868;28;20049;-91
2022/03/08 02:19:23;;;;;;;13.23;6.55;;;;;;;;;;4973458;28;20130;-92
2022/03/08 02:21:50;;;;;;;10.65;6.75;;;;;;;;;;4973682;28;20121;-91
2022/03/08 02:24:16;;;;;;;10.48;6.30;;;;;;;;;;4957514;28;20053;-93
2022/03/08 02:26:42;;;;;;;12.15;6.75;;;;;;;;;;4957713;28;20047;-92
2022/03/08 02:29:11;;;;;;;10.98;7.45;;;;;;;;;;4957280;28;20050;-91
2022/03/08 02:31:37;;;;;;;14.88;6.70;;;;;;;;;;4973638;28;20050;-92
2022/03/08 02:34:03;;;;;;;10.55;7.05;;;;;;;;;;4957192;28;20482;-90
2022/03/08 02:36:29;;;;;;;10.75;6.35;;;;;;;;;;4957406;28;20042;-92
2022/03/08 02:38:55;;;;;;;14.07;6.95;;;;;;;;;;4973608;28;20121;-93
2022/03/08 02:41:21;;;;;;;12.80;6.82;;;;;;;;;;4973196;28;20498;-93
2022/03/08 02:43:47;;;;;;;10.65;6.32;;;;;;;;;;4973284;28;20066;-92
2022/03/08 02:46:13;;;;;;;12.27;6.95;;;;;;;;;;4973618;28;20598;-93
2022/03/08 02:48:39;;;;;;;10.38;6.63;;;;;;;;;;4957638;28;20042;-93
2022/03/08 02:51:05;;;;;;;11.50;7.10;;;;;;;;;;4957431;28;20077;-91
2022/03/08 02:53:33;;;;;;;12.95;6.93;;;;;;;;;;4973305;28;20053;-92
2022/03/08 02:55:59;;;;;;;10.38;7.10;;;;;;;;;;4972620;28;20042;-91
2022/03/08 02:58:25;;;;;;;11.73;7.28;;;;;;;;;;4973320;28;20050;-93
2022/03/08 03:00:51;;;;;;;10.18;7.28;;;;;;;;;;4973511;28;20101;-93
2022/03/08 03:03:17;;;;;;;11.95;7.03;;;;;;;;;;4973111;28;20035;-92
2022/03/08 03:05:43;;;;;;;11.75;6.68;;;;;;;;;;4972978;28;20086;-92
2022/03/08 03:08:09;;;;;;;12.68;6.80;;;;;;;;;;4957776;28;20042;-92
2022/03/08 03:10:35;;;;;;;9.77;6.60;;;;;;;;;;4957473;28;20462;-93
2022/03/08 03:13:01;;;;;;;10.90;6.53;;;;;;;;;;4957184;28;20047;-92
2022/03/08 03:15:28;;;;;;;12.18;7.03;;;;;;;;;;4972924;28;20483;-91
2022/03/08 03:17:54;;;;;;;12.15;7.30;;;;;;;;;;4957251;28;20057;-91
2022/03/08 03:20:22;;;;;;;11.75;7.25;;;;;;;;;;4956794;28;20051;-91
2022/03/08 03:22:48;;;;;;;12.05;7.43;;;;;;;;;;4957219;28;20138;-92
2022/03/08 03:25:15;;;;;;;11.27;6.65;;;;;;;;;;4972644;28;20049;-91
2022/03/08 03:27:42;;;;;;;11.95;7.85;;;;;;;;;;4958461;28;20086;-90
2022/03/08 03:30:09;;;;;;;12.27;7.70;;;;;;;;;;4972695;28;20039;-92
2022/03/08 03:32:35;;;;;;;11.02;7.45;;;;;;;;;;4956927;28;20038;-92
2022/03/08 03:35:01;;;;;;;11.68;7.45;;;;;;;;;;4956868;28;20046;-93
2022/03/08 03:37:28;;;;;;;14.88;8.05;;;;;;;;;;4957100;28;20058;-92
2022/03/08 03:39:54;;;;;;;13.23;7.43;;;;;;;;;;4956984;28;20223;-92
2022/03/08 03:42:20;;;;;;;12.63;7.93;;;;;;;;;;4956725;28;20067;-92
2022/03/08 03:44:46;;;;;;;13.55;7.68;;;;;;;;;;4972814;28;20050;-92
2022/03/08 03:47:12;;;;;;;13.60;8.10;;;;;;;;;;4956742;28;20413;-92
2022/03/08 03:49:38;;;;;;;13.98;7.65;;;;;;;;;;4956750;28;20115;-93
2022/03/08 03:52:04;;;;;;;13.10;7.63;;;;;;;;;;4972851;28;20051;-92
2022/03/08 03:54:30;;;;;;;11.60;7.38;;;;;;;;;;4972956;28;20047;-91
2022/03/08 03:56:56;;;;;;;15.25;7.97;;;;;;;;;;4956767;28;20548;-91
2022/03/08 03:59:22;;;;;;;12.55;8.43;;;;;;;;;;4972724;28;20046;-92
2022/03/08 04:01:48;;;;;;;13.27;8.23;;;;;;;;;;4956539;28;20062;-92
2022/03/08 04:04:14;;;;;;;12.38;8.15;;;;;;;;;;4972963;28;20045;-92
2022/03/08 04:06:40;;;;;;;13.63;8.65;;;;;;;;;;4974803;28;20043;-92
2022/03/08 04:09:07;;;;;;;12.50;8.15;;;;;;;;;;4976736;28;20085;-91
2022/03/08 04:11:33;;;;;;;17.48;9.25;;;;;;;;;;4976184;28;20049;-91
2022/03/08 04:13:59;;;;;;;13.27;8.30;;;;;;;;;;4976363;28;20039;-92
2022/03/08 04:16:25;;;;;;;14.07;8.73;;;;;;;;;;4975754;28;20061;-92
2022/03/08 04:18:51;;;;;;;14.88;8.68;;;;;;;;;;4976481;28;20363;-92
2022/03/08 04:21:17;;;;;;;16.98;9.30;;;;;;;;;;4975802;28;20046;-92
2022/03/08 04:23:43;;;;;;;14.48;9.43;;;;;;;;;;4976000;28;20525;-93
2022/03/08 04:26:09;;;;;;;14.30;8.70;;;;;;;;;;4959589;28;20078;-92
2022/03/08 04:28:35;;;;;;;17.35;10.38;;;;;;;;;;4975859;28;20039;-93
2022/03/08 04:31:01;;;;;;;17.85;10.63;;;;;;;;;;4975856;28;20409;-92
2022/03/08 04:33:27;;;;;;;16.73;9.80;;;;;;;;;;4976177;28;20130;-92
2022/03/08 04:35:53;;;;;;;18.10;10.13;;;;;;;;;;4975910;28;20046;-93
2022/03/08 04:38:19;;;;;;;17.67;10.07;;;;;;;;;;4960001;28;20389;-92
2022/03/08 04:40:45;;;;;;;17.20;10.23;;;;;;;;;;4975588;28;20051;-92
2022/03/08 04:43:12;;;;;;;17.20;9.98;;;;;;;;;;4975571;28;20063;-92
2022/03/08 04:45:37;;;;;;;15.98;9.95;;;;;;;;;;4975636;28;20437;-91
2022/03/08 04:48:04;;;;;;;14.48;9.00;;;;;;;;;;4975683;28;20046;-92
2022/03/08 04:50:30;;;;;;;18.27;9.82;;;;;;;;;;4975271;28;20514;-93
2022/03/08 04:52:56;;;;;;;16.85;9.90;;;;;;;;;;4960120;28;20054;-92
2022/03/08 04:55:22;;;;;;;15.75;10.80;;;;;;;;;;4975270;28;20483;-92
2022/03/08 04:57:48;;;;;;;19.35;10.27;;;;;;;;;;4975341;28;20043;-92
2022/03/08 05:00:14;;;;;;;18.05;10.65;;;;;;;;;;4959285;28;20047;-92
2022/03/08 05:02:41;;;;;;;21.42;11.50;;;;;;;;;;4959666;28;20094;-92
2022/03/08 05:05:08;;;;;;;17.05;10.48;;;;;;;;;;4975285;28;20122;-93
2022/03/08 05:07:35;;;;;;;15.80;9.90;;;;;;;;;;4975712;28;20491;-91
2022/03/08 05:10:01;;;;;;;15.57;9.70;;;;;;;;;;4975154;28;20434;-92
2022/03/08 05:12:27;;;;;;;21.65;10.68;;;;;;;;;;4975266;28;20034;-93
2022/03/08 05:14:54;;;;;;;17.48;10.80;;;;;;;;;;4974868;28;20051;-92
2022/03/08 05:17:20;;;;;;;20.52;11.63;;;;;;;;;;4974507;28;20042;-92
2022/03/08 05:19:46;;;;;;;19.67;11.68;;;;;;;;;;4958973;28;20146;-92
2022/03/08 05:22:12;;;;;;;19.83;11.18;;;;;;;;;;4958845;28;20046;-91
2022/03/08 05:24:37;;;;;;;20.38;11.60;;;;;;;;;;4959447;28;20391;-94
2022/03/08 05:27:04;;;;;;;18.92;11.65;;;;;;;;;;4976206;28;20129;-92
2022/03/08 05:29:30;;;;;;;17.88;11.10;;;;;;;;;;4958615;28;20043;-93
2022/03/08 05:31:56;;;;;;;19.33;11.13;;;;;;;;;;4974648;28;20039;-91
2022/03/08 05:34:22;;;;;;;22.80;11.45;;;;;;;;;;4974685;28;20043;-93
2022/03/08 05:36:48;;;;;;;18.83;10.95;;;;;;;;;;4974577;28;20520;-91
2022/03/08 05:39:14;;;;;;;20.02;11.63;;;;;;;;;;4958952;28;20042;-92
2022/03/08 05:41:40;;;;;;;20.90;11.70;;;;;;;;;;4974927;28;20043;-92
2022/03/08 05:44:06;;;;;;;19.88;11.25;;;;;;;;;;4974712;28;20516;-93
2022/03/08 05:46:32;;;;;;;20.17;11.52;;;;;;;;;;4974711;28;20490;-93
2022/03/08 05:48:58;;;;;;;17.67;11.18;;;;;;;;;;4974558;28;20039;-91
2022/03/08 05:51:24;;;;;;;17.77;10.77;;;;;;;;;;4974416;28;20155;-92
2022/03/08 05:53:50;;;;;;;20.00;11.40;;;;;;;;;;4958538;28;20085;-93
2022/03/08 05:56:16;;;;;;;23.48;11.50;;;;;;;;;;4973953;28;20059;-92
2022/03/08 05:58:42;;;;;;;20.65;10.60;;;;;;;;;;4974234;28;20053;-91
2022/03/08 06:01:08;;;;;;;23.00;11.52;;;;;;;;;;4957904;28;20038;-92
2022/03/08 06:03:34;;;;;;;19.60;10.63;;;;;;;;;;4974509;28;20047;-92
2022/03/08 06:06:00;;;;;;;19.30;10.90;;;;;;;;;;4957730;28;20093;-91
2022/03/08 06:08:26;;;;;;;21.50;11.48;;;;;;;;;;4974166;28;20410;-91
2022/03/08 06:10:52;;;;;;;22.92;13.25;;;;;;;;;;4973801;28;20043;-91
2022/03/08 06:13:18;;;;;;;21.77;11.15;;;;;;;;;;4975042;28;20043;-92
2022/03/08 06:15:44;;;;;;;20.75;11.85;;;;;;;;;;4974031;28;20134;-92
2022/03/08 06:18:10;;;;;;;20.20;11.48;;;;;;;;;;4974073;28;20050;-93
2022/03/08 06:20:36;;;;;;;20.10;11.85;;;;;;;;;;4973751;28;20367;-92
2022/03/08 06:23:02;;;;;;;23.65;12.27;;;;;;;;;;4957725;28;20042;-93
2022/03/08 06:25:28;;;;;;;20.25;11.07;;;;;;;;;;4957570;28;20042;-91
2022/03/08 06:27:54;;;;;;;24.85;11.85;;;;;;;;;;4974022;28;20041;-92
2022/03/08 06:30:20;;;;;;;25.25;12.10;;;;;;;;;;4958235;28;20268;-94
2022/03/08 06:32:46;;;;;;;24.88;12.27;;;;;;;;;;4973916;28;20122;-93
2022/03/08 06:35:13;;;;;;;21.92;11.88;;;;;;;;;;4973706;28;20054;-92
2022/03/08 06:37:39;;;;;;;20.73;12.00;;;;;;;;;;4957867;28;20140;-92
2022/03/08 06:40:07;;;;;;;20.40;11.93;;;;;;;;;;4974255;28;20445;-93
2022/03/08 06:42:33;;;;;;;20.70;12.43;;;;;;;;;;4973469;28;20062;-92
2022/03/08 06:44:59;;;;;;;23.33;11.57;;;;;;;;;;4973641;28;20049;-93
2022/03/08 06:47:25;;;;;;;21.95;12.18;;;;;;;;;;4957496;28;20085;-93
2022/03/08 06:49:51;;;;;;;20.80;11.30;;;;;;;;;;4957729;28;20046;-92
2022/03/08 06:52:17;;;;;;;19.33;12.07;;;;;;;;;;4957627;28;20125;-92
2022/03/08 06:54:43;;;;;;;20.00;11.55;;;;;;;;;;4957496;28;20436;-93
2022/03/08 06:57:09;;;;;;;23.55;12.55;;;;;;;;;;4957274;28;20042;-93
2022/03/08 06:59:35;;;;;;;22.40;12.60;;;;;;;;;;4973535;28;20081;-93
2022/03/08 07:02:01;;;;;;;20.73;11.45;;;;;;;;;;4973168;28;20046;-93
2022/03/08 07:04:27;;;;;;;24.02;11.95;;;;;;;;;;4950708;28;20050;-93
2022/03/08 07:06:53;;;;;;;23.02;13.02;;;;;;;;;;4966191;28;20506;-93
2022/03/08 07:09:19;;;;;;;20.95;12.45;;;;;;;;;;4946291;28;20156;-91
2022/03/08 07:11:45;;;;;;;20.45;11.20;;;;;;;;;;4960850;28;20067;-92
2022/03/08 07:14:15;;;;;;;22.60;13.18;;;;;;;;;;4945200;28;20052;-93
2022/03/08 07:16:41;;;;;;;21.92;12.88;;;;;;;;;;4960524;28;20182;-93
2022/03/08 07:19:07;;;;;;;20.55;11.85;;;;;;;;;;4959512;28;20043;-92
2022/03/08 07:21:33;;;;;;;24.73;12.45;;;;;;;;;;4960094;28;20051;-91
2022/03/08 07:23:59;;;;;;;24.23;12.18;;;;;;;;;;4961900;28;20043;-93
2022/03/08 07:26:25;;;;;;;21.65;12.27;;;;;;;;;;4964210;28;20098;-93
2022/03/08 07:28:52;;;;;;;23.25;11.75;;;;;;;;;;4968116;28;20047;-93
2022/03/08 07:31:18;;;;;;;20.23;12.27;;;;;;;;;;4964778;28;20053;-93
2022/03/08 07:33:47;;;;;;;21.13;12.38;;;;;;;;;;4968643;28;20109;-94
2022/03/08 07:36:13;;;;;;;22.67;12.50;;;;;;;;;;4954423;28;20148;-94
2022/03/08 07:38:39;;;;;;;23.30;13.02;;;;;;;;;;4949280;28;20047;-92
2022/03/08 07:41:07;;;;;;;20.77;12.27;;;;;;;;;;4968691;28;20073;-95
2022/03/08 07:43:34;;;;;;;20.48;11.95;;;;;;;;;;4938914;28;20055;-92
2022/03/08 07:46:00;;;;;;;22.70;12.63;;;;;;;;;;4969123;28;20053;-93
2022/03/08 07:48:26;;;;;;;20.77;12.18;;;;;;;;;;4948838;28;20139;-92
2022/03/08 07:50:52;;;;;;;21.13;12.75;;;;;;;;;;4966233;28;20047;-92
2022/03/08 07:53:18;;;;;;;22.80;12.73;;;;;;;;;;4964266;28;20047;-91
2022/03/08 07:55:44;;;;;;;20.52;12.45;;;;;;;;;;4963021;28;20058;-91
2022/03/08 07:58:12;;;;;;;21.67;11.82;;;;;;;;;;4964086;28;20107;-93
2022/03/08 08:00:39;;;;;;;22.10;12.27;;;;;;;;;;4950444;28;20139;-91
2022/03/08 08:03:05;;;;;;;22.45;13.38;;;;;;;;;;4963058;28;20051;-93
2022/03/08 08:05:34;;;;;;;21.73;12.90;;;;;;;;;;4964393;28;20058;-91
2022/03/08 08:08:00;;;;;;;20.73;12.27;;;;;;;;;;4964889;28;20049;-93
2022/03/08 08:10:26;;;;;;;25.60;13.02;;;;;;;;;;4962621;28;20097;-92
2022/03/08 08:12:52;;;;;;;17.85;11.38;;;;;;;;;;4966423;28;20521;-92
2022/03/08 08:15:18;;;;;;;21.85;12.30;;;;;;;;;;4966058;28;20038;-91
2022/03/08 08:17:44;;;;;;;22.98;12.15;;;;;;;;;;4964503;28;20053;-93
2022/03/08 08:20:10;;;;;;;20.45;12.45;;;;;;;;;;4955230;28;20879;-92
2022/03/08 08:22:36;;;;;;;21.60;12.07;;;;;;;;;;4967333;28;20042;-92
2022/03/08 08:25:02;;;;;;;21.75;12.13;;;;;;;;;;4960056;28;20086;-92
2022/03/08 08:27:28;;;;;;;20.40;12.35;;;;;;;;;;4966585;28;20127;-90
2022/03/08 08:29:54;;;;;;;20.10;12.32;;;;;;;;;;4964550;28;20122;-92
2022/03/08 08:32:20;;;;;;;21.42;11.43;;;;;;;;;;4965555;28;20074;-91
2022/03/08 08:34:49;;;;;;;18.67;11.82;;;;;;;;;;4942540;28;20074;-92
2022/03/08 08:37:15;;;;;;;18.70;11.82;;;;;;;;;;4956963;29;20050;-93
2022/03/08 08:39:42;;;;;;;18.02;11.60;;;;;;;;;;4956601;29;20419;-90
2022/03/08 08:42:08;;;;;;;18.05;11.80;;;;;;;;;;4956207;29;20063;-93
2022/03/08 08:44:34;;;;;;;19.50;11.77;;;;;;;;;;4941188;29;20368;-91
2022/03/08 08:47:01;;;;;;;18.67;11.05;;;;;;;;;;4956697;29;20046;-92
2022/03/08 08:49:27;;;;;;;16.20;11.23;;;;;;;;;;4956801;29;20050;-93
2022/03/08 08:51:53;;;;;;;18.60;11.18;;;;;;;;;;4959624;28;20364;-94
2022/03/08 08:54:19;;;;;;;16.92;11.10;;;;;;;;;;4960890;28;20491;-91
2022/03/08 08:56:46;;;;;;;20.23;11.35;;;;;;;;;;4959207;28;20061;-92
2022/03/08 08:59:11;;;;;;;16.08;10.93;;;;;;;;;;4975487;28;20055;-92
2022/03/08 09:01:37;;;;;;;15.55;10.30;;;;;;;;;;4969290;28;20411;-92
2022/03/08 09:04:04;;;;;;;17.05;10.88;;;;;;;;;;4956290;29;20066;-92
2022/03/08 09:06:30;;;;;;;17.45;10.60;;;;;;;;;;4955801;29;20053;-92
2022/03/08 09:08:56;;;;;;;14.25;10.18;;;;;;;;;;4956063;29;20051;-93
2022/03/08 09:11:23;;;;;;;14.90;10.48;;;;;;;;;;4956256;29;20043;-94
2022/03/08 09:13:49;;;;;;;15.23;10.20;;;;;;;;;;4956333;29;20398;-92
2022/03/08 09:16:15;;;;;;;13.85;10.73;;;;;;;;;;4957223;28;20040;-94
2022/03/08 09:18:41;;;;;;;19.55;10.80;;;;;;;;;;4955948;29;20379;-93
2022/03/08 09:21:07;;;;;;;17.50;10.68;;;;;;;;;;4960229;29;20042;-93
2022/03/08 09:23:33;;;;;;;15.40;10.13;;;;;;;;;;4956206;29;20121;-93
2022/03/08 09:25:59;;;;;;;14.27;10.68;;;;;;;;;;4940196;29;20071;-92
2022/03/08 09:28:28;;;;;;;14.60;10.15;;;;;;;;;;4955923;29;20396;-91
2022/03/08 09:30:54;;;;;;;12.40;9.10;;;;;;;;;;4955325;29;20039;-91
2022/03/08 09:33:20;;;;;;;13.85;9.70;;;;;;;;;;4955496;29;20054;-92
2022/03/08 09:35:46;;;;;;;13.50;9.57;;;;;;;;;;4955364;29;20426;-93
2022/03/08 09:38:13;;;;;;;14.63;9.27;;;;;;;;;;4955136;29;20129;-91
2022/03/08 09:40:39;;;;;;;11.57;8.23;;;;;;;;;;4955215;29;20461;-91
2022/03/08 09:43:05;;;;;;;12.45;8.63;;;;;;;;;;4967464;28;20054;-92
2022/03/08 09:45:32;;;;;;;12.73;8.80;;;;;;;;;;4974617;28;20098;-89
2022/03/08 09:47:58;;;;;;;14.32;8.52;;;;;;;;;;4973576;28;20466;-94
2022/03/08 09:50:24;;;;;;;11.32;8.05;;;;;;;;;;4974342;28;20081;-92
2022/03/08 09:52:54;;;;;;;11.25;7.95;;;;;;;;;;4974233;28;20050;-92
2022/03/08 09:55:20;;;;;;;14.18;7.90;;;;;;;;;;4974488;28;20554;-93
2022/03/08 09:57:49;;;;;;;11.43;7.88;;;;;;;;;;4953058;28;20109;-91
2022/03/08 10:00:15;;;;;;;13.23;7.40;;;;;;;;;;4955620;28;20101;-92
2022/03/08 10:02:48;;;;;;;13.93;8.00;;;;;;;;;;4943335;28;20047;-94
2022/03/08 10:05:15;;;;;;;12.63;8.18;;;;;;;;;;4973819;28;20125;-92
2022/03/08 10:08:01;;;;;;;11.27;7.22;;;;;;;;;;4975287;28;20435;-92
2022/03/08 10:10:29;;;;;;;10.95;7.18;;;;;;;;;;4974006;28;20043;-91
2022/03/08 10:12:57;;;;;;;11.73;7.40;;;;;;;;;;4939516;29;20059;-93
2022/03/08 10:15:22;;;;;;;11.13;7.00;;;;;;;;;;4954842;29;20070;-91
2022/03/08 10:17:48;;;;;;;10.00;6.15;;;;;;;;;;4954523;29;20081;-91
2022/03/08 10:20:28;;;;;;;13.15;7.25;;;;;;;;;;4938641;29;20035;-91
2022/03/08 10:22:54;;;;;;;11.63;7.28;;;;;;;;;;4954608;29;20511;-93
2022/03/08 10:25:22;;;;;;;10.82;6.50;;;;;;;;;;4966666;28;20042;-92
2022/03/08 10:27:54;;;;;;;10.27;7.20;;;;;;;;;;4962076;28;20057;-93
2022/03/08 10:30:20;;;;;;;11.93;6.43;;;;;;;;;;4975060;28;20133;-92
2022/03/08 10:32:47;;;;;;;12.40;7.00;;;;;;;;;;4957735;28;20043;-93
2022/03/08 10:35:21;;;;;;;11.95;7.07;;;;;;;;;;4973601;28;20042;-91
2022/03/08 10:37:47;;;;;;;10.25;6.53;;;;;;;;;;4957801;28;20039;-93
2022/03/08 10:40:21;;;;;;;11.75;7.05;;;;;;;;;;4973270;28;20035;-91
2022/03/08 10:42:57;;;;;;;8.95;6.13;;;;;;;;;;4973463;28;20054;-91
2022/03/08 10:45:26;;;;;;;12.57;6.60;;;;;;;;;;4974830;28;20410;-91
2022/03/08 10:47:53;;;;;;;9.02;5.88;;;;;;;;;;4973566;28;20055;-91
2022/03/08 10:50:20;;;;;;;10.35;6.22;;;;;;;;;;4973534;28;20090;-92
2022/03/08 10:52:47;;;;;;;10.05;5.68;;;;;;;;;;4973477;28;20133;-92
2022/03/08 10:55:13;;;;;;;9.80;6.13;;;;;;;;;;4973245;28;20042;-92
2022/03/08 10:57:40;;;;;;;10.10;6.00;;;;;;;;;;4973384;28;20406;-95
2022/03/08 11:00:11;;;;;;;9.05;5.43;;;;;;;;;;4973616;28;20434;-93
2022/03/08 11:02:46;;;;;;;8.02;4.63;;;;;;;;;;4973159;28;20047;-92
2022/03/08 11:05:12;;;;;;;9.90;5.20;;;;;;;;;;4972862;28;20119;-90
2022/03/08 11:07:38;;;;;;;9.90;4.70;;;;;;;;;;4973246;28;20046;-92
2022/03/08 11:10:09;;;;;;;7.57;4.45;;;;;;;;;;4972585;28;20448;-93
2022/03/08 11:12:35;;;;;;;7.35;4.45;;;;;;;;;;4972997;28;20043;-91
2022/03/08 11:15:02;;;;;;;7.53;4.55;;;;;;;;;;4972409;28;20494;-91
2022/03/08 11:17:28;;;;;;;8.38;4.22;;;;;;;;;;4972758;28;20126;-92
2022/03/08 11:19:54;;;;;;;6.60;4.40;;;;;;;;;;4973997;28;20035;-93
2022/03/08 11:22:21;;;;;;;8.13;4.50;;;;;;;;;;4956709;28;20043;-92
2022/03/08 11:24:48;;;;;;;8.55;4.60;;;;;;;;;;4972946;28;20420;-91
2022/03/08 11:27:15;;;;;;;10.15;4.85;;;;;;;;;;4956740;28;20039;-91
2022/03/08 11:29:41;;;;;;;7.82;5.10;;;;;;;;;;4957325;28;20403;-92
2022/03/08 11:32:11;;;;;;;9.02;4.82;;;;;;;;;;4973945;28;20129;-92
2022/03/08 11:34:41;;;;;;;8.23;4.93;;;;;;;;;;4956933;28;20043;-92
2022/03/08 11:37:19;;;;;;;8.35;5.25;;;;;;;;;;4973633;28;20542;-91
2022/03/08 11:40:03;;;;;;;7.75;5.28;;;;;;;;;;4972638;28;20047;-93
2022/03/08 11:42:31;;;;;;;8.68;5.32;;;;;;;;;;4972703;28;20090;-92
2022/03/08 11:45:02;;;;;;;8.73;5.32;;;;;;;;;;4974087;28;20066;-92
2022/03/08 11:47:38;;;;;;;9.82;5.63;;;;;;;;;;4973298;28;20042;-92
2022/03/08 11:50:05;;;;;;;7.55;4.50;;;;;;;;;;4973338;28;20122;-91
2022/03/08 11:52:33;;;;;;;8.45;5.10;;;;;;;;;;4972594;28;20103;-91
2022/03/08 11:55:06;;;;;;;7.35;4.57;;;;;;;;;;4972611;28;20051;-89
2022/03/08 11:57:44;;;;;;;9.85;4.85;;;;;;;;;;4972681;28;20058;-91
2022/03/08 12:00:22;;;;;;;7.53;4.55;;;;;;;;;;4972069;28;20134;-91
2022/03/08 12:02:52;;;;;;;7.43;4.57;;;;;;;;;;4972737;28;20050;-91
2022/03/08 12:05:37;;;;;;;8.50;4.75;;;;;;;;;;4972918;28;20442;-91
2022/03/08 12:08:23;;;;;;;7.97;4.53;;;;;;;;;;4972632;28;20118;-93
2022/03/08 12:10:49;;;;;;;8.20;4.72;;;;;;;;;;4972150;28;20058;-90
2022/03/08 12:13:16;;;;;;;10.95;4.40;;;;;;;;;;4972351;28;20054;-92
2022/03/08 12:16:01;;;;;;;7.57;4.72;;;;;;;;;;4972581;28;20130;-91
2022/03/08 12:18:34;;;;;;;10.30;4.57;;;;;;;;;;4949138;29;20097;-92
2022/03/08 12:21:21;;;;;;;11.93;4.55;;;;;;;;;;4962249;28;20047;-91
2022/03/08 12:24:01;;;;;;;8.32;4.97;;;;;;;;;;4972542;28;20070;-92
2022/03/08 12:26:46;;;;;;;7.57;3.85;;;;;;;;;;4969157;28;20554;-92
2022/03/08 12:29:14;;;;;;;7.13;3.90;;;;;;;;;;4975037;28;20122;-91
2022/03/08 12:31:59;;;;;;;10.15;4.85;;;;;;;;;;4960214;28;20047;-91
2022/03/08 12:34:39;;;;;;;8.25;4.57;;;;;;;;;;4976723;28;20049;-89
2022/03/08 12:37:08;;;;;;;6.70;3.55;;;;;;;;;;4976386;28;20050;-93
2022/03/08 12:40:03;;;;;;;7.07;3.35;;;;;;;;;;4976282;28;20113;-94
2022/03/08 12:42:42;;;;;;;7.53;4.07;;;;;;;;;;4953648;28;20457;-94
2022/03/08 12:45:10;;;;;;;7.80;4.20;;;;;;;;;;4956677;28;20131;-92
2022/03/08 12:47:37;;;;;;;8.48;4.20;;;;;;;;;;4940768;29;20051;-91
2022/03/08 12:50:14;;;;;;;7.70;4.20;;;;;;;;;;4956194;29;20051;-92
2022/03/08 12:52:45;;;;;;;9.93;4.45;;;;;;;;;;4940979;29;20054;-91
2022/03/08 12:55:12;;;;;;;6.97;4.00;;;;;;;;;;4956105;29;20046;-90
2022/03/08 12:57:46;;;;;;;6.88;4.47;;;;;;;;;;4957536;29;20465;-93
2022/03/08 13:00:23;;;;;;;8.20;4.35;;;;;;;;;;4957730;28;20047;-91
2022/03/08 13:02:49;;;;;;;6.57;3.97;;;;;;;;;;4975717;28;20073;-92
2022/03/08 13:05:15;;;;;;;8.25;4.38;;;;;;;;;;4976160;28;20074;-90
2022/03/08 13:07:51;;;;;;;8.80;4.22;;;;;;;;;;4958843;28;20051;-91
2022/03/08 13:10:17;;;;;;;7.28;4.25;;;;;;;;;;4975105;28;20086;-91
2022/03/08 13:12:50;;;;;;;7.20;4.70;;;;;;;;;;4976449;28;20063;-91
2022/03/08 13:15:16;;;;;;;9.00;4.63;;;;;;;;;;4974770;28;20129;-90
2022/03/08 13:17:43;;;;;;;8.55;5.40;;;;;;;;;;4974708;28;20043;-92
2022/03/08 13:20:22;;;;;;;7.07;4.70;;;;;;;;;;4974471;28;20498;-91
2022/03/08 13:22:49;;;;;;;9.57;4.97;;;;;;;;;;4958841;28;20046;-90
2022/03/08 13:25:14;;;;;;;9.65;5.45;;;;;;;;;;4974436;28;20049;-89
2022/03/08 13:28:01;;;;;;;10.70;4.97;;;;;;;;;;4974680;28;20347;-90
2022/03/08 13:30:29;;;;;;;8.25;4.78;;;;;;;;;;4958347;28;20050;-90
2022/03/08 13:33:24;;;;;;;9.50;5.53;;;;;;;;;;4974669;28;20565;-90
2022/03/08 13:36:00;;;;;;;8.30;4.60;;;;;;;;;;4958210;28;20050;-91
2022/03/08 13:38:34;;;;;;;7.40;4.22;;;;;;;;;;4974951;28;20211;-89
2022/03/08 13:41:06;;;;;;;9.60;4.35;;;;;;;;;;4963177;28;20493;-90
2022/03/08 13:43:33;;;;;;;9.10;3.95;;;;;;;;;;4974462;28;20541;-91
2022/03/08 13:46:00;;;;;;;8.55;4.53;;;;;;;;;;4974398;28;20118;-90
2022/03/08 13:48:28;;;;;;;7.22;3.60;;;;;;;;;;4974280;28;20130;-90
2022/03/08 13:50:55;;;;;;;7.10;3.90;;;;;;;;;;4974190;28;20089;-89
2022/03/08 13:53:22;;;;;;;8.13;4.25;;;;;;;;;;4974168;28;20047;-90
2022/03/08 13:55:48;;;;;;;7.00;4.00;;;;;;;;;;4975236;28;20043;-90
2022/03/08 13:58:15;;;;;;;7.43;3.83;;;;;;;;;;4974514;28;20051;-90
2022/03/08 14:00:42;;;;;;;6.40;3.67;;;;;;;;;;4974072;28;20117;-91
2022/03/08 14:03:08;;;;;;;6.88;3.90;;;;;;;;;;4974043;28;20210;-90
2022/03/08 14:06:13;;;;;;;5.50;2.88;;;;;;;;;;4973476;28;20074;-90
2022/03/08 14:08:47;;;;;;;6.97;3.55;;;;;;;;;;4899764;29;20397;-90
2022/03/08 14:11:20;;;;;;;7.30;3.60;;;;;;;;;;4967075;28;20051;-89
2022/03/08 14:13:56;;;;;;;7.90;3.10;;;;;;;;;;4974063;28;20638;-90
2022/03/08 14:16:42;;;;;;;6.38;3.30;;;;;;;;;;4973363;28;20521;-90
2022/03/08 14:19:08;;;;;;;6.80;3.30;;;;;;;;;;4973888;28;20038;-91
2022/03/08 14:21:36;;;;;;;7.85;3.63;;;;;;;;;;4973455;28;20507;-91
2022/03/08 14:24:12;;;;;;;5.93;3.08;;;;;;;;;;4974833;28;20051;-91
2022/03/08 14:26:38;;;;;;;6.55;3.20;;;;;;;;;;4973452;28;20039;-89
2022/03/08 14:29:15;;;;;;;5.88;3.00;;;;;;;;;;4975229;28;20089;-89
2022/03/08 14:31:47;;;;;;;7.03;3.25;;;;;;;;;;4974672;28;20101;-90